Time;durP1;ratioP1;P1;durP2;ratioP2;P2;SDS_P1;SDS_P2;PMS_P1;PMS_P2;Temp;Humidity;BMP_temperature;BMP_pressure;BME280_temperature;BME280_humidity;BME280_pressure;Samples;Min_cycle;Max_cycle;Signal;HPM_P1;HPM_P2
2021/03/14 00:00:29;;;;;;;12.68;1.40;;;;;;;5.15;65.67;98877.72;4992053;28;20026;-72
2021/03/14 00:02:55;;;;;;;3.75;0.80;;;;;;;5.16;66.22;98878.56;4992054;28;20034;-72
2021/03/14 00:05:21;;;;;;;4.47;0.77;;;;;;;5.09;65.91;98877.78;4991818;28;20030;-72
2021/03/14 00:07:46;;;;;;;5.25;1.50;;;;;;;5.06;66.27;98877.84;4991986;28;20396;-72
2021/03/14 00:10:12;;;;;;;4.30;0.60;;;;;;;4.99;66.59;98881.38;4991848;28;20095;-72
2021/03/14 00:12:38;;;;;;;2.33;0.75;;;;;;;4.89;67.12;98874.50;4976080;28;20049;-72
2021/03/14 00:15:04;;;;;;;4.03;0.75;;;;;;;4.83;67.50;98886.75;4991785;28;20039;-72
2021/03/14 00:17:29;;;;;;;2.67;0.50;;;;;;;4.73;67.54;98884.25;4991680;28;20045;-72
2021/03/14 00:19:55;;;;;;;2.67;0.73;;;;;;;4.74;68.18;98885.97;4982580;28;20125;-72
2021/03/14 00:22:20;;;;;;;6.90;1.25;;;;;;;4.67;68.18;98897.38;4991865;28;20030;-72
2021/03/14 00:24:45;;;;;;;2.78;1.05;;;;;;;4.65;68.18;98889.53;4991708;28;20030;-72
2021/03/14 00:27:11;;;;;;;3.42;0.70;;;;;;;4.58;68.39;98895.69;4991631;28;20625;-72
2021/03/14 00:29:36;;;;;;;5.25;0.98;;;;;;;4.52;68.63;98890.50;4991769;28;20035;-72
2021/03/14 00:32:03;;;;;;;3.83;1.02;;;;;;;4.45;69.29;98899.28;4991809;28;20046;-73
2021/03/14 00:34:29;;;;;;;3.50;1.13;;;;;;;4.50;68.63;98890.50;4990557;28;20501;-72
2021/03/14 00:36:55;;;;;;;3.97;0.95;;;;;;;4.47;69.03;98887.94;4991280;28;20045;-72
2021/03/14 00:39:20;;;;;;;2.90;0.73;;;;;;;4.45;69.11;98897.53;4991655;28;20476;-72
2021/03/14 00:41:45;;;;;;;6.78;0.90;;;;;;;4.35;69.73;98903.72;4991686;28;20041;-72
2021/03/14 00:44:11;;;;;;;2.85;0.70;;;;;;;4.34;69.83;98902.81;4987492;28;20027;-72
2021/03/14 00:46:36;;;;;;;2.88;0.70;;;;;;;4.36;69.72;98919.34;4982463;28;20413;-72
2021/03/14 00:49:02;;;;;;;2.88;0.80;;;;;;;4.30;70.01;98911.56;4991704;28;20072;-72
2021/03/14 00:51:27;;;;;;;3.75;1.00;;;;;;;4.27;70.42;98926.38;4982376;28;20035;-71
2021/03/14 00:53:53;;;;;;;4.72;1.30;;;;;;;4.31;70.62;98942.03;4982239;28;20535;-72
2021/03/14 00:56:24;;;;;;;4.38;0.95;;;;;;;4.28;70.63;98920.31;4991251;28;20038;-72
2021/03/14 00:58:49;;;;;;;2.88;1.05;;;;;;;4.23;70.63;98925.53;4982325;28;20038;-72
2021/03/14 01:01:17;;;;;;;5.60;1.20;;;;;;;4.22;70.91;98938.59;4982244;28;20558;-72
2021/03/14 01:03:43;;;;;;;4.18;1.10;;;;;;;4.22;71.01;98949.03;4982253;28;20133;-72
2021/03/14 01:06:10;;;;;;;3.67;1.40;;;;;;;4.24;71.00;98952.53;4984930;28;20109;-72
2021/03/14 01:08:36;;;;;;;5.07;1.27;;;;;;;4.22;71.29;98943.81;4985651;28;20370;-72
2021/03/14 01:11:02;;;;;;;4.15;1.10;;;;;;;4.18;71.51;98942.97;4995316;28;20109;-72
2021/03/14 01:13:47;;;;;;;4.45;1.02;;;;;;;4.14;71.67;98941.28;4975760;28;20432;-72
2021/03/14 01:16:14;;;;;;;2.42;0.73;;;;;;;4.18;71.98;98937.75;4982224;28;20065;-72
2021/03/14 01:18:40;;;;;;;5.20;0.85;;;;;;;4.20;72.19;98937.75;4985763;28;20057;-72
2021/03/14 01:21:05;;;;;;;4.30;1.13;;;;;;;4.27;71.79;98940.34;4994828;28;20034;-72
2021/03/14 01:23:31;;;;;;;4.03;1.00;;;;;;;4.25;71.68;98949.91;4994887;28;20081;-72
2021/03/14 01:25:56;;;;;;;5.05;1.10;;;;;;;4.25;71.81;98949.91;4994670;28;20507;-72
2021/03/14 01:28:21;;;;;;;6.47;1.20;;;;;;;4.24;71.56;98948.16;4994760;28;20034;-72
2021/03/14 01:30:47;;;;;;;8.10;1.30;;;;;;;4.26;71.80;98949.03;4994793;28;20073;-72
2021/03/14 01:33:12;;;;;;;6.57;1.92;;;;;;;4.18;71.79;98948.19;4994773;28;20449;-72
2021/03/14 01:35:37;;;;;;;3.75;1.10;;;;;;;4.20;72.01;98941.25;4994187;28;20089;-72
2021/03/14 01:38:03;;;;;;;4.88;1.10;;;;;;;4.14;71.76;98956.94;4994503;28;20476;-72
2021/03/14 01:40:29;;;;;;;5.05;1.25;;;;;;;4.21;71.64;98936.88;4994543;28;20038;-72
2021/03/14 01:42:54;;;;;;;5.03;1.05;;;;;;;4.13;71.65;98952.59;4994595;28;20081;-72
2021/03/14 01:45:20;;;;;;;3.47;1.25;;;;;;;4.11;71.34;98939.56;4994283;28;20058;-72
2021/03/14 01:47:47;;;;;;;5.15;1.17;;;;;;;4.10;71.58;98947.38;4994441;28;20511;-72
2021/03/14 01:50:19;;;;;;;5.93;2.05;;;;;;;4.06;71.36;98949.16;4994284;28;20453;-72
2021/03/14 01:52:45;;;;;;;5.47;1.40;;;;;;;4.10;71.47;98960.44;4994434;28;20405;-72
2021/03/14 01:55:13;;;;;;;5.93;1.13;;;;;;;4.11;71.14;98959.53;4994047;28;20034;-72
2021/03/14 01:57:39;;;;;;;4.72;1.33;;;;;;;4.09;70.90;98948.28;4978511;28;20429;-72
2021/03/14 02:00:08;;;;;;;4.32;1.13;;;;;;;4.10;71.08;98950.84;4994324;28;20026;-72
2021/03/14 02:02:37;;;;;;;6.15;1.20;;;;;;;4.10;70.74;98939.56;4994194;28;20050;-72
2021/03/14 02:05:05;;;;;;;5.88;1.77;;;;;;;4.09;70.69;98935.22;4984630;28;20038;-72
2021/03/14 02:07:31;;;;;;;7.65;2.25;;;;;;;4.05;70.94;98936.09;4993890;28;20030;-72
2021/03/14 02:09:56;;;;;;;11.05;1.98;;;;;;;4.06;70.91;98932.59;4994051;28;20419;-72
2021/03/14 02:12:25;;;;;;;6.25;1.70;;;;;;;4.03;70.72;98933.47;4993981;28;20043;-72
2021/03/14 02:14:56;;;;;;;5.10;1.27;;;;;;;4.12;70.55;98933.44;4985000;28;20404;-72
2021/03/14 02:17:26;;;;;;;6.28;1.38;;;;;;;4.09;70.99;98930.00;4993392;28;20038;-72
2021/03/14 02:19:56;;;;;;;8.85;1.58;;;;;;;4.11;70.65;98923.91;4993829;28;20034;-72
2021/03/14 02:22:22;;;;;;;6.13;1.50;;;;;;;4.08;70.94;98923.88;4993869;28;20034;-73
2021/03/14 02:24:54;;;;;;;4.75;1.20;;;;;;;4.11;70.77;98929.13;4993781;28;20095;-72
2021/03/14 02:27:20;;;;;;;4.87;1.40;;;;;;;4.07;70.67;98935.22;4993563;28;20034;-72
2021/03/14 02:29:46;;;;;;;5.97;1.73;;;;;;;4.10;70.44;98934.34;4993673;28;20519;-72
2021/03/14 02:32:13;;;;;;;6.70;1.30;;;;;;;4.08;70.79;98942.16;4993706;28;20050;-72
2021/03/14 02:34:43;;;;;;;6.32;1.38;;;;;;;4.11;70.89;98936.94;4977775;28;20039;-72
2021/03/14 02:37:10;;;;;;;6.90;1.20;;;;;;;4.11;70.55;98941.28;4993133;28;20122;-73
2021/03/14 02:39:38;;;;;;;8.63;1.65;;;;;;;4.07;70.41;98943.03;4993517;28;20068;-72
2021/03/14 02:42:07;;;;;;;6.60;1.40;;;;;;;3.97;70.54;98938.75;4991834;28;20512;-72
2021/03/14 02:44:53;;;;;;;5.60;1.10;;;;;;;4.02;70.79;98942.19;4993399;28;20042;-72
2021/03/14 02:47:23;;;;;;;5.68;1.20;;;;;;;4.02;70.10;98946.56;4993035;28;20508;-73
2021/03/14 02:49:52;;;;;;;6.47;1.42;;;;;;;4.06;70.34;98948.25;4993287;28;20038;-72
2021/03/14 02:52:20;;;;;;;7.75;1.55;;;;;;;4.13;70.15;98944.75;4983925;28;20038;-73
2021/03/14 02:54:48;;;;;;;6.90;1.30;;;;;;;4.07;70.13;98950.88;4993212;28;20034;-72
2021/03/14 02:57:17;;;;;;;6.13;1.15;;;;;;;4.06;70.14;98949.16;4992875;28;20485;-72
2021/03/14 02:59:43;;;;;;;10.35;1.65;;;;;;;4.01;70.31;98956.13;4993106;28;20039;-72
2021/03/14 03:02:09;;;;;;;5.63;1.13;;;;;;;4.08;69.92;98956.97;4993202;28;20041;-72
2021/03/14 03:04:35;;;;;;;3.20;1.02;;;;;;;4.07;70.04;98950.88;4993041;28;20105;-72
2021/03/14 03:07:01;;;;;;;6.22;1.20;;;;;;;4.09;69.59;98956.09;4992932;28;20034;-72
2021/03/14 03:09:27;;;;;;;6.38;1.20;;;;;;;4.02;70.13;98970.06;4992725;28;20049;-72
2021/03/14 03:11:54;;;;;;;4.97;1.25;;;;;;;4.07;69.86;98965.69;4991676;28;20030;-73
2021/03/14 03:14:22;;;;;;;6.68;1.30;;;;;;;4.07;69.78;98963.94;4992871;28;20117;-72
2021/03/14 03:16:51;;;;;;;8.60;1.40;;;;;;;4.05;69.91;98964.81;4992450;28;20501;-72
2021/03/14 03:19:18;;;;;;;5.90;1.10;;;;;;;4.06;69.81;98980.47;4992726;28;20038;-72
2021/03/14 03:21:44;;;;;;;8.88;1.55;;;;;;;4.06;69.59;98979.59;4992700;28;20041;-72
2021/03/14 03:24:10;;;;;;;8.80;1.75;;;;;;;4.06;69.78;98980.47;4992653;28;20092;-72
2021/03/14 03:26:47;;;;;;;6.22;1.25;;;;;;;4.09;69.56;98987.44;4992283;28;20023;-72
2021/03/14 03:29:17;;;;;;;6.43;1.38;;;;;;;4.12;69.74;98992.63;4992180;28;20073;-72
2021/03/14 03:31:45;;;;;;;5.88;1.30;;;;;;;4.09;69.47;98992.66;4977794;28;20041;-72
2021/03/14 03:34:12;;;;;;;8.57;2.05;;;;;;;4.08;69.43;98988.28;4992590;28;20061;-72
2021/03/14 03:36:38;;;;;;;4.85;1.02;;;;;;;4.10;69.35;98991.78;4991782;28;20042;-72
2021/03/14 03:39:09;;;;;;;6.72;1.42;;;;;;;4.11;69.23;98990.88;4992447;28;20453;-72
2021/03/14 03:41:39;;;;;;;4.40;1.50;;;;;;;4.09;69.28;99000.50;4992460;28;20850;-72
2021/03/14 03:44:05;;;;;;;8.05;1.63;;;;;;;4.03;69.26;98990.06;4992400;28;20034;-72
2021/03/14 03:46:32;;;;;;;7.68;1.40;;;;;;;4.07;69.49;99000.47;4992017;28;20031;-72
2021/03/14 03:48:58;;;;;;;6.00;1.10;;;;;;;4.08;68.94;99001.34;4992223;28;20519;-72
2021/03/14 03:51:26;;;;;;;5.45;1.23;;;;;;;4.09;68.43;98996.13;4992241;28;20035;-72
2021/03/14 03:53:53;;;;;;;7.10;1.50;;;;;;;4.11;68.68;98988.28;4992156;28;20038;-72
2021/03/14 03:56:20;;;;;;;3.78;1.27;;;;;;;4.09;68.64;99003.09;4991816;28;20400;-72
2021/03/14 03:58:46;;;;;;;10.40;1.67;;;;;;;4.08;68.93;99004.81;4992178;28;20080;-72
2021/03/14 04:01:13;;;;;;;8.15;1.67;;;;;;;4.04;68.87;99005.72;4992095;28;20117;-72
2021/03/14 04:03:43;;;;;;;3.67;1.38;;;;;;;4.03;68.76;99009.19;4976061;28;20034;-73
2021/03/14 04:06:10;;;;;;;6.55;1.15;;;;;;;4.11;68.44;99011.78;4991817;28;20049;-72
2021/03/14 04:08:37;;;;;;;6.47;1.33;;;;;;;4.11;68.21;99017.88;4991941;28;20034;-72
2021/03/14 04:11:08;;;;;;;6.28;1.15;;;;;;;4.14;68.27;99024.84;4992118;28;20413;-72
2021/03/14 04:13:35;;;;;;;4.68;1.83;;;;;;;4.12;68.24;99017.00;4992010;28;20535;-72
2021/03/14 04:16:03;;;;;;;8.77;1.88;;;;;;;4.08;68.53;99014.41;4991551;28;20053;-73
2021/03/14 04:18:31;;;;;;;5.72;1.25;;;;;;;4.05;67.86;99025.72;4991824;28;20137;-73
2021/03/14 04:20:58;;;;;;;6.10;1.50;;;;;;;4.09;67.91;99031.81;4991881;28;20045;-73
2021/03/14 04:23:26;;;;;;;5.70;1.20;;;;;;;4.14;68.01;99024.84;4991972;28;20034;-72
2021/03/14 04:25:56;;;;;;;5.95;1.73;;;;;;;4.09;67.98;99027.47;4991783;28;20030;-73
2021/03/14 04:28:29;;;;;;;4.07;1.25;;;;;;;4.04;67.73;99030.97;4991876;28;20073;-73
2021/03/14 04:30:56;;;;;;;5.40;1.65;;;;;;;4.14;67.44;99041.38;4991826;28;20121;-73
2021/03/14 04:33:27;;;;;;;5.22;1.30;;;;;;;4.05;67.83;99040.53;4992009;28;20066;-73
2021/03/14 04:35:57;;;;;;;5.05;1.10;;;;;;;4.10;67.46;99043.97;4991409;28;20042;-72
2021/03/14 04:38:25;;;;;;;4.22;1.48;;;;;;;4.16;67.17;99054.41;4992024;28;20037;-72
2021/03/14 04:40:52;;;;;;;5.43;1.85;;;;;;;4.15;67.09;99044.84;4995663;28;20046;-72
2021/03/14 04:43:18;;;;;;;5.65;1.25;;;;;;;4.13;67.22;99043.97;4995568;28;20034;-72
2021/03/14 04:45:44;;;;;;;5.45;1.33;;;;;;;4.11;67.30;99041.38;4995420;28;20037;-72
2021/03/14 04:48:09;;;;;;;5.50;1.23;;;;;;;4.08;67.24;99045.72;4980719;28;20034;-72
2021/03/14 04:50:35;;;;;;;6.18;1.73;;;;;;;4.09;66.91;99055.31;4989897;28;20125;-72
2021/03/14 04:53:02;;;;;;;4.68;1.40;;;;;;;4.13;67.23;99044.84;4992643;28;20041;-72
2021/03/14 04:55:32;;;;;;;6.10;1.30;;;;;;;4.10;67.61;99039.63;4995244;28;20056;-72
2021/03/14 04:57:59;;;;;;;4.68;1.13;;;;;;;4.09;67.38;99052.72;4995228;28;20456;-73
2021/03/14 05:00:25;;;;;;;4.28;1.20;;;;;;;4.02;67.54;99050.97;4995283;28;20050;-72
2021/03/14 05:02:55;;;;;;;8.63;1.50;;;;;;;4.12;67.00;99069.22;4995217;28;20100;-72
2021/03/14 05:05:21;;;;;;;6.85;2.03;;;;;;;4.08;67.05;99069.22;4994907;28;20045;-72
2021/03/14 05:07:48;;;;;;;5.90;1.30;;;;;;;4.08;66.82;99056.16;4995149;28;20509;-72
2021/03/14 05:10:19;;;;;;;5.25;1.55;;;;;;;4.13;66.69;99072.69;4995225;28;20041;-72
2021/03/14 05:12:45;;;;;;;3.95;1.15;;;;;;;4.13;66.91;99063.09;4980751;28;20030;-72
2021/03/14 05:15:12;;;;;;;4.72;1.20;;;;;;;4.14;66.77;99084.91;4994903;28;20037;-72
2021/03/14 05:17:39;;;;;;;2.97;1.10;;;;;;;4.15;66.62;99073.56;4995053;28;20704;-74
2021/03/14 05:20:07;;;;;;;4.28;1.48;;;;;;;4.07;66.33;99072.72;4989407;28;20038;-72
2021/03/14 05:22:34;;;;;;;5.72;1.30;;;;;;;4.12;66.51;99079.66;4980665;28;20093;-72
2021/03/14 05:25:01;;;;;;;5.70;1.42;;;;;;;4.20;66.03;99076.16;4994725;28;20045;-72
2021/03/14 05:27:27;;;;;;;3.60;1.25;;;;;;;4.24;66.06;99078.72;4983099;28;20514;-72
2021/03/14 05:29:54;;;;;;;4.78;1.30;;;;;;;4.24;65.76;99081.34;4979228;28;20504;-72
2021/03/14 05:32:19;;;;;;;5.40;1.45;;;;;;;4.30;65.30;99091.78;4979140;28;20072;-72
2021/03/14 05:34:44;;;;;;;5.03;1.70;;;;;;;4.38;65.05;99092.63;4979251;28;20046;-72
2021/03/14 05:37:10;;;;;;;4.15;1.17;;;;;;;4.33;65.12;99099.59;4980696;28;20089;-72
2021/03/14 05:39:35;;;;;;;5.97;1.30;;;;;;;4.36;65.33;99099.59;4980258;28;20048;-72
2021/03/14 05:42:03;;;;;;;5.53;1.38;;;;;;;4.36;65.34;99104.81;4978322;28;20031;-72
2021/03/14 05:44:29;;;;;;;3.95;1.40;;;;;;;4.41;65.18;99101.31;4976298;28;20039;-72
2021/03/14 05:46:54;;;;;;;3.92;1.25;;;;;;;4.47;65.34;99114.34;4978519;28;20045;-72
2021/03/14 05:49:19;;;;;;;4.63;1.17;;;;;;;4.51;65.20;99114.34;4975405;28;20434;-72
2021/03/14 05:51:50;;;;;;;7.00;1.92;;;;;;;4.53;64.96;99130.00;4977410;28;20090;-72
2021/03/14 05:54:16;;;;;;;3.33;1.30;;;;;;;4.52;65.37;99115.19;4978033;28;20503;-72
2021/03/14 05:56:44;;;;;;;5.13;1.23;;;;;;;4.63;64.67;99131.69;4982836;28;20037;-72
2021/03/14 05:59:13;;;;;;;4.82;1.52;;;;;;;4.73;64.59;99122.94;4976727;28;20046;-72
2021/03/14 06:01:40;;;;;;;4.72;1.35;;;;;;;4.78;64.59;99139.47;4975728;28;20030;-72
2021/03/14 06:04:09;;;;;;;4.68;1.70;;;;;;;4.86;63.64;99141.19;4976324;28;20031;-73
2021/03/14 06:06:36;;;;;;;3.97;1.70;;;;;;;4.87;64.30;99133.31;4977440;28;20030;-72
2021/03/14 06:09:02;;;;;;;4.00;1.25;;;;;;;4.93;63.91;99142.88;4978031;28;20065;-72
2021/03/14 06:11:29;;;;;;;5.03;1.95;;;;;;;4.99;64.21;99148.06;4979059;28;20043;-72
2021/03/14 06:13:54;;;;;;;3.88;1.50;;;;;;;4.97;63.70;99150.69;4987969;28;20038;-72
2021/03/14 06:16:20;;;;;;;4.18;1.83;;;;;;;5.04;64.07;99151.53;4993534;28;20153;-72
2021/03/14 06:18:46;;;;;;;5.45;1.50;;;;;;;5.11;64.02;99162.81;4994003;28;20034;-73
2021/03/14 06:21:25;;;;;;;5.40;1.40;;;;;;;5.21;63.53;99170.63;4993880;28;20058;-72
2021/03/14 06:24:05;;;;;;;4.25;1.60;;;;;;;5.12;64.04;99172.41;4982854;28;20042;-73
2021/03/14 06:26:55;;;;;;;5.50;1.92;;;;;;;5.14;64.26;99171.53;4984360;28;20108;-72
2021/03/14 06:29:21;;;;;;;3.65;1.58;;;;;;;5.25;63.63;99185.41;4994160;28;20041;-72
2021/03/14 06:31:48;;;;;;;5.65;1.90;;;;;;;5.25;64.04;99193.25;4996872;28;20129;-73
2021/03/14 06:34:44;;;;;;;3.40;1.40;;;;;;;5.33;63.45;99208.03;4987306;28;20053;-74
2021/03/14 06:37:13;;;;;;;3.95;1.75;;;;;;;5.18;63.30;99217.69;4984964;28;20057;-72
2021/03/14 06:39:42;;;;;;;4.72;1.70;;;;;;;5.26;64.13;99204.56;4976350;28;20034;-72
2021/03/14 06:42:07;;;;;;;7.90;2.10;;;;;;;5.22;64.33;99211.56;4993495;28;20058;-72
2021/03/14 06:44:35;;;;;;;5.85;2.17;;;;;;;5.18;64.45;99212.47;4984226;28;20434;-71
2021/03/14 06:47:03;;;;;;;7.82;2.35;;;;;;;5.15;64.64;99212.47;4993016;28;20555;-72
2021/03/14 06:49:34;;;;;;;4.80;2.03;;;;;;;5.25;64.84;99242.09;4988037;28;20031;-72
2021/03/14 06:51:59;;;;;;;7.88;2.50;;;;;;;5.18;65.91;99230.75;4993319;28;20084;-72
2021/03/14 06:54:28;;;;;;;5.22;2.10;;;;;;;5.08;67.11;99249.13;4993486;28;20525;-70
2021/03/14 06:57:13;;;;;;;7.60;2.63;;;;;;;4.93;67.31;99257.94;4992779;28;20500;-72
2021/03/14 06:59:48;;;;;;;6.70;3.00;;;;;;;4.93;67.97;99261.41;4996865;28;20047;-72
2021/03/14 07:02:15;;;;;;;6.07;2.30;;;;;;;4.92;68.02;99254.41;4988763;28;20038;-71
2021/03/14 07:04:50;;;;;;;5.90;2.72;;;;;;;4.96;67.85;99269.22;4977430;28;20042;-72
2021/03/14 07:07:21;;;;;;;6.13;2.80;;;;;;;4.93;68.32;99284.06;4992756;28;20030;-72
2021/03/14 07:09:53;;;;;;;6.18;2.72;;;;;;;4.95;68.38;99272.72;4992923;28;20053;-72
2021/03/14 07:12:20;;;;;;;4.88;2.60;;;;;;;4.97;68.94;99280.56;4992946;28;20460;-71
2021/03/14 07:14:45;;;;;;;7.90;2.70;;;;;;;5.00;68.04;99288.38;4992836;28;20096;-71
2021/03/14 07:17:11;;;;;;;7.97;3.20;;;;;;;5.10;67.72;99312.75;4992391;28;20034;-71
2021/03/14 07:19:38;;;;;;;5.22;2.58;;;;;;;5.07;67.56;99300.56;4992697;28;20042;-72
2021/03/14 07:22:11;;;;;;;5.63;2.80;;;;;;;5.18;67.62;99304.00;4983508;28;20114;-74
2021/03/14 07:24:39;;;;;;;6.85;2.90;;;;;;;5.13;67.42;99290.06;4992679;28;20465;-70
2021/03/14 07:27:09;;;;;;;8.50;3.13;;;;;;;5.18;67.34;99306.63;4992258;28;20038;-71
2021/03/14 07:29:35;;;;;;;9.48;3.00;;;;;;;5.20;67.43;99307.50;4992491;28;20041;-71
2021/03/14 07:32:02;;;;;;;10.38;3.20;;;;;;;5.27;67.42;99316.19;4992595;28;20034;-72
2021/03/14 07:34:28;;;;;;;5.18;2.95;;;;;;;5.26;67.11;99315.31;4992533;28;20174;-71
2021/03/14 07:36:54;;;;;;;5.55;2.83;;;;;;;5.39;67.17;99323.97;4992098;28;20030;-72
2021/03/14 07:39:20;;;;;;;4.97;2.70;;;;;;;5.41;66.37;99323.97;4983046;28;20038;-72
2021/03/14 07:41:46;;;;;;;6.22;2.67;;;;;;;5.51;66.59;99327.44;4992424;28;20497;-71
2021/03/14 07:44:21;;;;;;;7.60;2.63;;;;;;;5.44;67.03;99334.44;4992309;28;20520;-71
2021/03/14 07:46:48;;;;;;;6.70;2.90;;;;;;;5.41;66.73;99350.16;4992026;28;20030;-72
2021/03/14 07:49:16;;;;;;;5.65;2.92;;;;;;;5.42;67.19;99351.88;4992134;28;20045;-71
2021/03/14 07:51:54;;;;;;;6.82;2.92;;;;;;;5.50;66.96;99352.69;4977057;28;20049;-71
2021/03/14 07:54:33;;;;;;;6.55;3.13;;;;;;;5.46;67.13;99359.72;4982840;28;20042;-72
2021/03/14 07:57:00;;;;;;;6.35;2.75;;;;;;;5.49;66.85;99364.91;4991899;28;20038;-72
2021/03/14 07:59:30;;;;;;;5.22;2.72;;;;;;;5.48;67.25;99371.03;4992086;28;20034;-72
2021/03/14 08:02:17;;;;;;;8.35;3.22;;;;;;;5.55;67.13;99374.50;4975397;28;20034;-71
2021/03/14 08:04:47;;;;;;;5.05;2.70;;;;;;;5.45;67.01;99365.84;4979421;28;20034;-71
2021/03/14 08:07:13;;;;;;;5.03;2.80;;;;;;;5.44;66.72;99373.69;4976673;28;20085;-72
2021/03/14 08:09:50;;;;;;;6.05;2.92;;;;;;;5.45;67.04;99388.53;4987346;28;20038;-72
2021/03/14 08:12:21;;;;;;;5.80;3.08;;;;;;;5.44;66.71;99382.38;4975937;28;20125;-72
2021/03/14 08:14:53;;;;;;;5.55;2.95;;;;;;;5.44;67.23;99405.94;4977856;28;20458;-71
2021/03/14 08:17:23;;;;;;;5.32;3.08;;;;;;;5.46;67.33;99404.19;4994482;28;20497;-72
2021/03/14 08:19:51;;;;;;;5.53;2.92;;;;;;;5.56;67.58;99405.03;4981268;28;20038;-72
2021/03/14 08:22:39;;;;;;;5.95;3.05;;;;;;;5.45;68.47;99419.91;4991977;28;20038;-72
2021/03/14 08:25:28;;;;;;;7.35;3.53;;;;;;;5.32;69.32;99433.88;4991581;28;20041;-70
2021/03/14 08:28:19;;;;;;;9.32;4.22;;;;;;;5.23;70.61;99455.72;4989497;28;20031;-71
2021/03/14 08:30:46;;;;;;;7.78;4.03;;;;;;;5.08;71.94;99437.41;4988183;28;20027;-71
2021/03/14 08:33:18;;;;;;;8.55;3.55;;;;;;;5.09;70.68;99468.81;4979183;28;20045;-71
2021/03/14 08:36:06;;;;;;;8.32;3.22;;;;;;;5.03;71.19;99471.41;4982277;28;20042;-71
2021/03/14 08:38:41;;;;;;;7.50;4.18;;;;;;;4.99;71.63;99452.25;4982356;28;20572;-71
2021/03/14 08:41:27;;;;;;;6.78;3.72;;;;;;;4.99;72.40;99469.69;4982551;28;20041;-71
2021/03/14 08:44:02;;;;;;;6.82;3.72;;;;;;;4.98;72.93;99470.56;4973397;28;20504;-71
2021/03/14 08:46:45;;;;;;;7.45;4.10;;;;;;;4.99;73.01;99488.00;4981622;28;20038;-71
2021/03/14 08:49:12;;;;;;;8.00;3.83;;;;;;;4.91;73.83;99519.38;4982346;28;20064;-71
2021/03/14 08:51:37;;;;;;;8.07;4.30;;;;;;;4.81;75.26;99513.25;4990366;28;20041;-71
2021/03/14 08:54:03;;;;;;;8.65;4.90;;;;;;;4.69;75.98;99508.03;4966209;28;20042;-71
2021/03/14 08:56:36;;;;;;;9.80;4.65;;;;;;;4.63;76.81;99536.75;4996428;28;20031;-71
2021/03/14 08:59:13;;;;;;;11.05;5.20;;;;;;;4.53;77.51;99558.50;4983806;28;20516;-71
2021/03/14 09:01:42;;;;;;;8.32;5.00;;;;;;;4.37;78.45;99532.34;4976421;28;20054;-70
2021/03/14 09:04:20;;;;;;;8.18;5.38;;;;;;;4.28;79.12;99558.44;4982273;28;20389;-70
2021/03/14 09:07:11;;;;;;;10.93;5.97;;;;;;;4.20;80.29;99538.41;4990649;28;20038;-69
2021/03/14 09:09:39;;;;;;;9.80;6.10;;;;;;;4.11;81.59;99541.81;4966330;28;20117;-70
2021/03/14 09:12:22;;;;;;;14.00;6.40;;;;;;;4.09;81.83;99551.41;4982113;28;20037;-70
2021/03/14 09:14:56;;;;;;;13.27;6.90;;;;;;;4.08;82.17;99557.47;4991551;28;20518;-69
2021/03/14 09:17:43;;;;;;;10.02;6.45;;;;;;;4.04;81.81;99560.97;4991337;28;20105;-71
2021/03/14 09:20:09;;;;;;;14.35;7.20;;;;;;;4.02;82.12;99578.34;4982067;28;20034;-69
2021/03/14 09:22:38;;;;;;;11.20;6.25;;;;;;;3.99;81.92;99575.72;4982142;28;20386;-70
2021/03/14 09:25:16;;;;;;;12.85;6.72;;;;;;;4.04;82.23;99581.84;4981839;28;20409;-70
2021/03/14 09:27:46;;;;;;;9.93;6.40;;;;;;;4.11;82.09;99587.13;4985418;28;20041;-70
2021/03/14 09:30:18;;;;;;;13.93;7.72;;;;;;;4.10;82.52;99592.31;5001757;28;20033;-70
2021/03/14 09:32:51;;;;;;;12.02;6.90;;;;;;;4.13;82.59;99614.09;4994601;28;20034;-70
2021/03/14 09:35:31;;;;;;;11.45;7.05;;;;;;;4.10;82.58;99607.97;5001479;28;20030;-70
2021/03/14 09:38:14;;;;;;;11.85;7.80;;;;;;;4.14;82.66;99621.06;4985216;28;20030;-70
2021/03/14 09:40:45;;;;;;;12.38;7.07;;;;;;;4.11;82.63;99633.22;4974387;28;20054;-70
2021/03/14 09:43:26;;;;;;;10.35;6.03;;;;;;;4.07;82.99;99613.19;4998194;28;20037;-70
2021/03/14 09:46:21;;;;;;;12.15;7.15;;;;;;;4.08;83.60;99626.25;4981361;28;20153;-71
2021/03/14 09:49:14;;;;;;;11.82;6.85;;;;;;;4.11;83.11;99631.50;4985153;28;20085;-69
2021/03/14 09:51:57;;;;;;;8.18;5.45;;;;;;;4.04;82.67;99626.25;4974765;28;20046;-70
2021/03/14 09:54:24;;;;;;;10.38;5.95;;;;;;;4.02;83.40;99621.00;4999387;28;20030;-70
2021/03/14 09:56:56;;;;;;;10.18;6.57;;;;;;;4.10;84.04;99628.88;4984565;28;20077;-70
2021/03/14 09:59:35;;;;;;;9.27;5.85;;;;;;;4.14;83.11;99662.84;4978879;28;20042;-70
2021/03/14 10:02:28;;;;;;;6.70;4.65;;;;;;;4.11;82.78;99647.16;4982741;28;20035;-70
2021/03/14 10:05:17;;;;;;;8.23;5.40;;;;;;;4.21;82.49;99624.56;4983960;28;20042;-71
2021/03/14 10:07:42;;;;;;;6.90;5.30;;;;;;;4.25;82.75;99628.97;4984293;28;20030;-71
2021/03/14 10:10:11;;;;;;;9.35;5.63;;;;;;;4.35;82.90;99630.75;4984667;28;20121;-71
2021/03/14 10:12:58;;;;;;;7.40;4.68;;;;;;;4.45;82.08;99631.63;4982371;28;20535;-70
2021/03/14 10:15:25;;;;;;;7.43;4.55;;;;;;;4.54;81.34;99638.66;4993709;28;20027;-71
2021/03/14 10:17:57;;;;;;;7.57;4.82;;;;;;;4.59;80.44;99632.59;4984449;28;20034;-72
2021/03/14 10:20:23;;;;;;;6.65;4.25;;;;;;;4.68;79.51;99641.31;4968349;28;20081;-71
2021/03/14 10:23:08;;;;;;;7.03;4.15;;;;;;;4.80;79.56;99642.25;4984461;28;20455;-71
2021/03/14 10:25:41;;;;;;;7.60;4.47;;;;;;;4.95;79.36;99643.13;4977882;28;20089;-71
2021/03/14 10:28:25;;;;;;;7.70;4.85;;;;;;;5.08;79.50;99644.91;4993687;28;20050;-71
2021/03/14 10:31:10;;;;;;;7.65;5.40;;;;;;;5.24;79.37;99651.94;4973700;28;20035;-72
2021/03/14 10:33:44;;;;;;;6.25;4.78;;;;;;;5.28;79.57;99658.03;4990258;28;20069;-73
2021/03/14 10:36:18;;;;;;;7.43;5.35;;;;;;;5.47;79.96;99656.28;4972083;28;20141;-71
2021/03/14 10:38:59;;;;;;;8.15;5.07;;;;;;;5.44;78.84;99664.13;4994590;28;20030;-71
2021/03/14 10:41:45;;;;;;;7.30;5.32;;;;;;;5.55;78.05;99688.56;4981169;28;20062;-71
2021/03/14 10:44:21;;;;;;;6.47;4.47;;;;;;;5.48;77.01;99676.38;4983921;28;20053;-71
2021/03/14 10:46:56;;;;;;;7.18;5.22;;;;;;;5.65;76.51;99673.75;4974003;28;20093;-71
2021/03/14 10:49:30;;;;;;;6.90;4.28;;;;;;;5.77;76.37;99667.66;4998560;28;20039;-72
2021/03/14 10:52:02;;;;;;;7.97;5.15;;;;;;;5.93;76.78;99678.13;4983884;28;20034;-72
2021/03/14 10:54:35;;;;;;;8.95;5.10;;;;;;;6.12;74.76;99686.84;4966104;28;20082;-72
2021/03/14 10:57:13;;;;;;;9.15;5.18;;;;;;;6.18;76.11;99680.69;4980107;28;20035;-72
2021/03/14 10:59:40;;;;;;;9.45;5.72;;;;;;;6.22;74.50;99684.22;4999829;28;20038;-72
2021/03/14 11:02:35;;;;;;;7.93;5.20;;;;;;;6.33;73.68;99680.69;4983590;28;20036;-73
2021/03/14 11:05:03;;;;;;;8.43;5.40;;;;;;;6.42;74.60;99690.28;4983417;28;20045;-72
2021/03/14 11:07:36;;;;;;;13.52;5.85;;;;;;;6.50;73.69;99717.34;4992813;28;20053;-72
2021/03/14 11:10:24;;;;;;;9.32;5.30;;;;;;;6.42;72.98;99710.34;4992672;28;20046;-72
2021/03/14 11:13:19;;;;;;;10.05;5.80;;;;;;;6.51;73.74;99690.25;4975871;28;20116;-72
2021/03/14 11:16:25;;;;;;;12.45;6.15;;;;;;;6.70;73.86;99693.66;4982921;28;20035;-73
2021/03/14 11:19:05;;;;;;;8.20;4.95;;;;;;;6.87;71.77;99695.38;4983370;28;20045;-73
2021/03/14 11:21:46;;;;;;;7.88;4.85;;;;;;;6.88;72.43;99711.06;4962913;28;20038;-74
2021/03/14 11:24:12;;;;;;;8.75;5.13;;;;;;;6.98;71.10;99702.28;4983167;28;20038;-73
2021/03/14 11:26:43;;;;;;;8.25;5.72;;;;;;;6.96;72.10;99697.94;4971969;28;20044;-73
2021/03/14 11:29:10;;;;;;;10.63;4.93;;;;;;;7.02;71.60;99706.66;4963775;28;20509;-73
2021/03/14 11:31:44;;;;;;;9.82;5.10;;;;;;;7.10;70.89;99700.47;4982958;28;20539;-73
2021/03/14 11:34:14;;;;;;;5.97;4.25;;;;;;;7.24;70.46;99704.78;4992363;28;20038;-72
2021/03/14 11:36:59;;;;;;;7.82;4.95;;;;;;;7.34;71.07;99707.38;4980813;28;20098;-73
2021/03/14 11:39:37;;;;;;;8.80;4.65;;;;;;;7.57;69.40;99696.69;4982884;28;20030;-73
2021/03/14 11:42:09;;;;;;;8.90;5.05;;;;;;;7.70;68.08;99703.59;4982955;28;20038;-73
2021/03/14 11:44:55;;;;;;;9.20;4.97;;;;;;;7.79;67.57;99707.91;4984906;28;20072;-72
2021/03/14 11:47:22;;;;;;;6.82;4.95;;;;;;;8.20;66.58;99710.19;4982385;28;20034;-73
2021/03/14 11:50:11;;;;;;;12.45;4.93;;;;;;;8.28;65.47;99718.88;4991562;28;20135;-73
2021/03/14 11:52:36;;;;;;;8.73;4.68;;;;;;;8.59;66.50;99709.78;4982794;28;20177;-73
2021/03/14 11:55:04;;;;;;;8.82;4.50;;;;;;;8.77;64.32;99713.06;4982442;28;20034;-73
2021/03/14 11:57:30;;;;;;;8.10;4.93;;;;;;;8.76;64.07;99699.97;4982561;28;20497;-73